sensor_id;sensor_type;location;lat;lon;timestamp;pressure;altitude;pressure_sealevel;temperature;humidity
52535;BME280;38443;53.164;5.802;2022-09-09T00:02:05;100836.84;;;12.86;92.54
52535;BME280;38443;53.164;5.802;2022-09-09T00:04:35;100835.91;;;12.87;92.11
52535;BME280;38443;53.164;5.802;2022-09-09T00:07:27;100831.47;;;12.86;92.17
52535;BME280;38443;53.164;5.802;2022-09-09T00:10:19;100827.84;;;12.87;92.00
52535;BME280;38443;53.164;5.802;2022-09-09T00:13:22;100827.91;;;12.86;91.79
52535;BME280;38443;53.164;5.802;2022-09-09T00:21:43;100820.03;;;12.81;92.28
52535;BME280;38443;53.164;5.802;2022-09-09T00:24:32;100821.09;;;12.77;92.01
52535;BME280;38443;53.164;5.802;2022-09-09T00:27:29;100809.66;;;12.72;92.28
52535;BME280;38443;53.164;5.802;2022-09-09T00:30:12;100810.59;;;12.71;92.39
52535;BME280;38443;53.164;5.802;2022-09-09T00:32:38;100808.78;;;12.71;92.67
52535;BME280;38443;53.164;5.802;2022-09-09T00:37:35;100805.22;;;12.71;92.54
52535;BME280;38443;53.164;5.802;2022-09-09T00:40:08;100801.78;;;12.67;92.44
52535;BME280;38443;53.164;5.802;2022-09-09T00:42:43;100802.84;;;12.63;92.99
52535;BME280;38443;53.164;5.802;2022-09-09T00:48:06;100805.91;;;12.52;92.60
52535;BME280;38443;53.164;5.802;2022-09-09T00:58:31;100801.00;;;12.40;92.97
52535;BME280;38443;53.164;5.802;2022-09-09T01:01:11;100803.75;;;12.38;93.09
52535;BME280;38443;53.164;5.802;2022-09-09T01:03:39;100810.91;;;12.38;93.10
52535;BME280;38443;53.164;5.802;2022-09-09T01:06:30;100812.97;;;12.31;93.00
52535;BME280;38443;53.164;5.802;2022-09-09T01:17:14;100811.88;;;12.37;93.68
52535;BME280;38443;53.164;5.802;2022-09-09T01:22:19;100813.38;;;12.44;93.65
52535;BME280;38443;53.164;5.802;2022-09-09T01:25:07;100806.09;;;12.48;93.79
52535;BME280;38443;53.164;5.802;2022-09-09T01:27:37;100802.34;;;12.52;93.73
52535;BME280;38443;53.164;5.802;2022-09-09T01:30:10;100805.91;;;12.52;93.76
52535;BME280;38443;53.164;5.802;2022-09-09T01:32:42;100793.38;;;12.53;93.30
52535;BME280;38443;53.164;5.802;2022-09-09T01:35:29;100791.66;;;12.50;93.51
52535;BME280;38443;53.164;5.802;2022-09-09T01:37:57;100794.34;;;12.50;93.38
52535;BME280;38443;53.164;5.802;2022-09-09T01:40:25;100792.66;;;12.48;93.68
52535;BME280;38443;53.164;5.802;2022-09-09T01:42:52;100799.72;;;12.50;93.71
52535;BME280;38443;53.164;5.802;2022-09-09T01:45:17;100780.94;;;12.50;93.86
52535;BME280;38443;53.164;5.802;2022-09-09T01:47:44;100791.66;;;12.50;93.64
52535;BME280;38443;53.164;5.802;2022-09-09T01:50:13;100784.56;;;12.49;93.69
52535;BME280;38443;53.164;5.802;2022-09-09T01:52:41;100792.72;;;12.46;93.75
52535;BME280;38443;53.164;5.802;2022-09-09T01:55:08;100787.47;;;12.43;93.95
52535;BME280;38443;53.164;5.802;2022-09-09T01:57:41;100787.47;;;12.43;94.08
52535;BME280;38443;53.164;5.802;2022-09-09T02:08:05;100783.25;;;12.36;93.92
52535;BME280;38443;53.164;5.802;2022-09-09T02:10:46;100789.69;;;12.32;93.88
52535;BME280;38443;53.164;5.802;2022-09-09T02:13:16;100786.19;;;12.30;93.94
52535;BME280;38443;53.164;5.802;2022-09-09T02:15:53;100784.44;;;12.29;94.04
52535;BME280;38443;53.164;5.802;2022-09-09T02:18:52;100787.13;;;12.29;94.04
52535;BME280;38443;53.164;5.802;2022-09-09T02:21:31;100791.59;;;12.28;94.35
52535;BME280;38443;53.164;5.802;2022-09-09T02:24:02;100783.63;;;12.27;94.30
52535;BME280;38443;53.164;5.802;2022-09-09T02:26:31;100786.38;;;12.25;94.20
52535;BME280;38443;53.164;5.802;2022-09-09T02:29:01;100789.03;;;12.25;94.26
52535;BME280;38443;53.164;5.802;2022-09-09T02:31:27;100791.78;;;12.24;94.15
52535;BME280;38443;53.164;5.802;2022-09-09T02:33:57;100791.84;;;12.22;94.34
52535;BME280;38443;53.164;5.802;2022-09-09T02:36:27;100787.34;;;12.23;94.51
52535;BME280;38443;53.164;5.802;2022-09-09T02:38:54;100778.41;;;12.22;94.61
52535;BME280;38443;53.164;5.802;2022-09-09T02:41:24;100780.22;;;12.22;94.64
52535;BME280;38443;53.164;5.802;2022-09-09T02:43:51;100791.72;;;12.25;94.83
52535;BME280;38443;53.164;5.802;2022-09-09T02:49:03;100784.38;;;12.30;94.95
52535;BME280;38443;53.164;5.802;2022-09-09T02:54:29;100782.63;;;12.29;94.97
52535;BME280;38443;53.164;5.802;2022-09-09T02:57:01;100774.56;;;12.29;94.95
52535;BME280;38443;53.164;5.802;2022-09-09T02:59:29;100775.50;;;12.28;94.93
52535;BME280;38443;53.164;5.802;2022-09-09T03:01:55;100776.41;;;12.29;94.94
52535;BME280;38443;53.164;5.802;2022-09-09T03:04:21;100779.09;;;12.29;94.66
52535;BME280;38443;53.164;5.802;2022-09-09T03:06:47;100778.13;;;12.30;95.05
52535;BME280;38443;53.164;5.802;2022-09-09T03:09:12;100791.56;;;12.30;94.80
52535;BME280;38443;53.164;5.802;2022-09-09T03:11:38;100791.44;;;12.33;94.86
52535;BME280;38443;53.164;5.802;2022-09-09T03:14:03;100788.88;;;12.30;95.11
52535;BME280;38443;53.164;5.802;2022-09-09T03:16:29;100785.19;;;12.32;95.09
52535;BME280;38443;53.164;5.802;2022-09-09T03:18:55;100787.00;;;12.32;95.26
52535;BME280;38443;53.164;5.802;2022-09-09T03:21:20;100788.88;;;12.30;95.17
52535;BME280;38443;53.164;5.802;2022-09-09T03:23:46;100779.94;;;12.29;95.29
52535;BME280;38443;53.164;5.802;2022-09-09T03:26:12;100774.63;;;12.28;95.15
52535;BME280;38443;53.164;5.802;2022-09-09T03:28:39;100773.81;;;12.26;95.35
52535;BME280;38443;53.164;5.802;2022-09-09T03:31:05;100781.03;;;12.24;95.30
52535;BME280;38443;53.164;5.802;2022-09-09T03:33:31;100797.09;;;12.25;95.15
52535;BME280;38443;53.164;5.802;2022-09-09T03:35:57;100785.47;;;12.25;95.38
52535;BME280;38443;53.164;5.802;2022-09-09T03:38:23;100790.91;;;12.23;95.41
52535;BME280;38443;53.164;5.802;2022-09-09T03:40:53;100782.88;;;12.23;95.53
52535;BME280;38443;53.164;5.802;2022-09-09T03:43:26;100775.69;;;12.24;95.75
52535;BME280;38443;53.164;5.802;2022-09-09T03:45:52;100774.69;;;12.26;95.43
52535;BME280;38443;53.164;5.802;2022-09-09T03:48:18;100772.91;;;12.27;95.66
52535;BME280;38443;53.164;5.802;2022-09-09T03:50:48;100771.06;;;12.27;95.79
52535;BME280;38443;53.164;5.802;2022-09-09T03:53:15;100768.34;;;12.29;95.75
52535;BME280;38443;53.164;5.802;2022-09-09T03:55:45;100774.53;;;12.31;95.62
52535;BME280;38443;53.164;5.802;2022-09-09T03:58:12;100775.44;;;12.30;95.66
52535;BME280;38443;53.164;5.802;2022-09-09T04:00:38;100772.66;;;12.33;95.74
52535;BME280;38443;53.164;5.802;2022-09-09T04:03:08;100775.34;;;12.33;95.62
52535;BME280;38443;53.164;5.802;2022-09-09T04:05:33;100772.66;;;12.33;95.98
52535;BME280;38443;53.164;5.802;2022-09-09T04:07:59;100769.97;;;12.33;95.88
52535;BME280;38443;53.164;5.802;2022-09-09T04:10:24;100770.03;;;12.31;95.69
52535;BME280;38443;53.164;5.802;2022-09-09T04:12:49;100772.66;;;12.33;95.77
52535;BME280;38443;53.164;5.802;2022-09-09T04:15:15;100769.03;;;12.34;95.92
52535;BME280;38443;53.164;5.802;2022-09-09T04:17:40;100771.72;;;12.34;95.76
52535;BME280;38443;53.164;5.802;2022-09-09T04:20:06;100773.34;;;12.38;96.27
52535;BME280;38443;53.164;5.802;2022-09-09T04:22:36;100768.69;;;12.43;96.04
52535;BME280;38443;53.164;5.802;2022-09-09T04:25:04;100768.50;;;12.48;96.39
52535;BME280;38443;53.164;5.802;2022-09-09T04:27:30;100768.47;;;12.49;96.42
52535;BME280;38443;53.164;5.802;2022-09-09T04:29:56;100761.22;;;12.51;96.35
52535;BME280;38443;53.164;5.802;2022-09-09T04:32:22;100760.34;;;12.51;96.29
52535;BME280;38443;53.164;5.802;2022-09-09T04:34:48;100754.06;;;12.50;96.39
52535;BME280;38443;53.164;5.802;2022-09-09T04:37:14;100754.06;;;12.50;96.56
52535;BME280;38443;53.164;5.802;2022-09-09T04:39:39;100763.94;;;12.50;96.15
52535;BME280;38443;53.164;5.802;2022-09-09T04:42:04;100759.44;;;12.50;96.50
52535;BME280;38443;53.164;5.802;2022-09-09T04:44:30;100758.53;;;12.51;96.56
52535;BME280;38443;53.164;5.802;2022-09-09T04:46:55;100762.03;;;12.53;96.39
52535;BME280;38443;53.164;5.802;2022-09-09T04:49:21;100771.81;;;12.54;96.42
52535;BME280;38443;53.164;5.802;2022-09-09T04:51:49;100764.66;;;12.55;96.38
52535;BME280;38443;53.164;5.802;2022-09-09T04:54:14;100753.84;;;12.56;96.48
52535;BME280;38443;53.164;5.802;2022-09-09T04:56:39;100769.03;;;12.57;96.74
52535;BME280;38443;53.164;5.802;2022-09-09T04:59:07;100760.97;;;12.57;96.47
52535;BME280;38443;53.164;5.802;2022-09-09T05:01:32;100765.38;;;12.58;96.47
52535;BME280;38443;53.164;5.802;2022-09-09T05:03:57;100759.28;;;12.55;96.48
52535;BME280;38443;53.164;5.802;2022-09-09T05:06:23;100762.84;;;12.55;96.63
52535;BME280;38443;53.164;5.802;2022-09-09T05:08:49;100765.47;;;12.57;96.45
52535;BME280;38443;53.164;5.802;2022-09-09T05:11:22;100771.72;;;12.57;96.34
52535;BME280;38443;53.164;5.802;2022-09-09T05:13:49;100771.72;;;12.57;96.50
52535;BME280;38443;53.164;5.802;2022-09-09T05:16:16;100777.03;;;12.59;96.55
52535;BME280;38443;53.164;5.802;2022-09-09T05:18:41;100774.22;;;12.62;96.70
52535;BME280;38443;53.164;5.802;2022-09-09T05:21:08;100773.28;;;12.63;96.30
52535;BME280;38443;53.164;5.802;2022-09-09T05:23:34;100762.41;;;12.66;96.41
52535;BME280;38443;53.164;5.802;2022-09-09T05:26:01;100776.66;;;12.68;97.02
52535;BME280;38443;53.164;5.802;2022-09-09T05:28:27;100766.66;;;12.72;96.61
52535;BME280;38443;53.164;5.802;2022-09-09T05:31:00;100766.66;;;12.72;96.88
52535;BME280;38443;53.164;5.802;2022-09-09T05:33:29;100767.53;;;12.72;96.89
52535;BME280;38443;53.164;5.802;2022-09-09T05:35:59;100764.84;;;12.72;96.40
52535;BME280;38443;53.164;5.802;2022-09-09T05:38:25;100763.06;;;12.73;96.57
52535;BME280;38443;53.164;5.802;2022-09-09T05:40:51;100771.03;;;12.74;96.85
52535;BME280;38443;53.164;5.802;2022-09-09T05:43:18;100781.78;;;12.74;96.29
52535;BME280;38443;53.164;5.802;2022-09-09T05:45:45;100790.75;;;12.75;96.51
52535;BME280;38443;53.164;5.802;2022-09-09T05:48:12;100791.66;;;12.74;96.74
52535;BME280;38443;53.164;5.802;2022-09-09T05:50:37;100790.75;;;12.75;96.24
52535;BME280;38443;53.164;5.802;2022-09-09T05:53:02;100792.53;;;12.74;96.53
52535;BME280;38443;53.164;5.802;2022-09-09T05:55:28;100791.78;;;12.71;95.88
52535;BME280;38443;53.164;5.802;2022-09-09T05:57:54;100784.47;;;12.74;96.43
52535;BME280;38443;53.164;5.802;2022-09-09T06:00:19;100770.13;;;12.75;96.39
52535;BME280;38443;53.164;5.802;2022-09-09T06:02:50;100774.44;;;12.80;96.16
52535;BME280;38443;53.164;5.802;2022-09-09T06:05:17;100781.44;;;12.84;96.28
52535;BME280;38443;53.164;5.802;2022-09-09T06:07:42;100781.19;;;12.90;96.33
52535;BME280;38443;53.164;5.802;2022-09-09T06:10:10;100773.88;;;12.93;96.04
52535;BME280;38443;53.164;5.802;2022-09-09T06:12:36;100784.31;;;13.01;96.33
52535;BME280;38443;53.164;5.802;2022-09-09T06:15:01;100772.56;;;13.04;95.83
52535;BME280;38443;53.164;5.802;2022-09-09T06:17:27;100783.00;;;13.11;96.33
52535;BME280;38443;53.164;5.802;2022-09-09T06:19:52;100772.88;;;13.18;96.04
52535;BME280;38443;53.164;5.802;2022-09-09T06:22:18;100773.56;;;13.23;96.18
52535;BME280;38443;53.164;5.802;2022-09-09T06:24:44;100780.63;;;13.26;95.95
52535;BME280;38443;53.164;5.802;2022-09-09T06:27:10;100782.31;;;13.28;95.88
52535;BME280;38443;53.164;5.802;2022-09-09T06:29:36;100776.75;;;13.33;95.94
52535;BME280;38443;53.164;5.802;2022-09-09T06:32:02;100780.34;;;13.33;95.56
52535;BME280;38443;53.164;5.802;2022-09-09T06:34:28;100784.81;;;13.33;95.30
52535;BME280;38443;53.164;5.802;2022-09-09T06:36:53;100789.22;;;13.35;95.56
52535;BME280;38443;53.164;5.802;2022-09-09T06:39:19;100785.56;;;13.36;95.34
52535;BME280;38443;53.164;5.802;2022-09-09T06:41:44;100781.16;;;13.35;95.66
52535;BME280;38443;53.164;5.802;2022-09-09T06:44:10;100786.59;;;13.34;95.39
52535;BME280;38443;53.164;5.802;2022-09-09T06:46:38;100780.34;;;13.33;95.22
52535;BME280;38443;53.164;5.802;2022-09-09T06:49:04;100783.09;;;13.32;94.96
52535;BME280;38443;53.164;5.802;2022-09-09T06:51:32;100783.97;;;13.32;95.15
52535;BME280;38443;53.164;5.802;2022-09-09T06:53:59;100782.03;;;13.36;95.05
52535;BME280;38443;53.164;5.802;2022-09-09T06:56:26;100780.09;;;13.40;95.02
52535;BME280;38443;53.164;5.802;2022-09-09T06:58:53;100778.25;;;13.40;95.02
52535;BME280;38443;53.164;5.802;2022-09-09T07:01:27;100767.44;;;13.42;94.67
52535;BME280;38443;53.164;5.802;2022-09-09T07:03:54;100774.38;;;13.47;94.34
52535;BME280;38443;53.164;5.802;2022-09-09T07:06:22;100779.69;;;13.49;94.59
52535;BME280;38443;53.164;5.802;2022-09-09T07:08:57;100777.75;;;13.52;94.08
52535;BME280;38443;53.164;5.802;2022-09-09T07:11:29;100779.28;;;13.58;94.29
52535;BME280;38443;53.164;5.802;2022-09-09T07:13:57;100771.78;;;13.66;94.00
52535;BME280;38443;53.164;5.802;2022-09-09T07:16:24;100779.44;;;13.75;94.01
52535;BME280;38443;53.164;5.802;2022-09-09T07:18:51;100781.72;;;13.85;93.63
52535;BME280;38443;53.164;5.802;2022-09-09T07:21:17;100780.47;;;13.93;93.09
52535;BME280;38443;53.164;5.802;2022-09-09T07:23:43;100777.69;;;13.95;92.93
52535;BME280;38443;53.164;5.802;2022-09-09T07:26:14;100774.59;;;14.04;92.90
52535;BME280;38443;53.164;5.802;2022-09-09T07:28:40;100774.19;;;14.13;92.84
52535;BME280;38443;53.164;5.802;2022-09-09T07:31:12;100770.94;;;14.26;92.60
52535;BME280;38443;53.164;5.802;2022-09-09T07:33:39;100768.53;;;14.39;91.67
52535;BME280;38443;53.164;5.802;2022-09-09T07:36:23;100774.38;;;14.48;89.71
52535;BME280;38443;53.164;5.802;2022-09-09T07:38:57;100772.78;;;14.63;91.26
52535;BME280;38443;53.164;5.802;2022-09-09T07:41:24;100772.66;;;14.66;90.68
52535;BME280;38443;53.164;5.802;2022-09-09T07:43:50;100769.91;;;14.68;90.64
52535;BME280;38443;53.164;5.802;2022-09-09T07:46:18;100781.41;;;14.71;90.49
52535;BME280;38443;53.164;5.802;2022-09-09T07:48:49;100776.28;;;14.65;89.57
52535;BME280;38443;53.164;5.802;2022-09-09T07:51:21;100777.09;;;14.86;90.39
52535;BME280;38443;53.164;5.802;2022-09-09T07:53:48;100776.31;;;15.21;89.75
52535;BME280;38443;53.164;5.802;2022-09-09T07:56:16;100770.78;;;15.24;88.29
52535;BME280;38443;53.164;5.802;2022-09-09T07:58:42;100773.56;;;15.22;89.39
52535;BME280;38443;53.164;5.802;2022-09-09T08:01:14;100769.19;;;15.20;89.49
52535;BME280;38443;53.164;5.802;2022-09-09T08:03:41;100774.69;;;15.35;88.53
52535;BME280;38443;53.164;5.802;2022-09-09T08:06:08;100773.91;;;15.51;87.65
52535;BME280;38443;53.164;5.802;2022-09-09T08:08:35;100784.22;;;15.60;88.23
52535;BME280;38443;53.164;5.802;2022-09-09T08:11:12;100773.97;;;15.67;85.21
52535;BME280;38443;53.164;5.802;2022-09-09T08:13:38;100766.06;;;15.99;87.54
52535;BME280;38443;53.164;5.802;2022-09-09T08:16:16;100768.91;;;16.46;82.27
52535;BME280;38443;53.164;5.802;2022-09-09T08:18:41;100767.88;;;16.65;85.44
52535;BME280;38443;53.164;5.802;2022-09-09T08:21:12;100767.34;;;16.58;84.44
52535;BME280;38443;53.164;5.802;2022-09-09T08:23:42;100773.63;;;16.59;86.47
52535;BME280;38443;53.164;5.802;2022-09-09T08:26:15;100774.25;;;16.64;84.78
52535;BME280;38443;53.164;5.802;2022-09-09T08:28:41;100775.31;;;17.09;84.68
52535;BME280;38443;53.164;5.802;2022-09-09T08:33:34;100768.03;;;17.71;81.68
52535;BME280;38443;53.164;5.802;2022-09-09T08:36:01;100755.88;;;17.79;82.83
52535;BME280;38443;53.164;5.802;2022-09-09T08:38:27;100767.47;;;18.11;81.12
52535;BME280;38443;53.164;5.802;2022-09-09T08:40:58;100759.91;;;18.59;77.75
52535;BME280;38443;53.164;5.802;2022-09-09T08:43:30;100767.94;;;19.17;76.71
52535;BME280;38443;53.164;5.802;2022-09-09T08:46:06;100780.22;;;19.22;74.72
52535;BME280;38443;53.164;5.802;2022-09-09T08:49:00;100787.97;;;18.44;78.52
52535;BME280;38443;53.164;5.802;2022-09-09T08:51:25;100784.09;;;18.05;81.85
52535;BME280;38443;53.164;5.802;2022-09-09T08:53:52;100792.06;;;17.92;82.75
52535;BME280;38443;53.164;5.802;2022-09-09T08:56:23;100784.91;;;17.61;79.92
52535;BME280;38443;53.164;5.802;2022-09-09T08:58:51;100785.81;;;17.45;80.80
52535;BME280;38443;53.164;5.802;2022-09-09T09:04:05;100787.34;;;17.03;78.69
52535;BME280;38443;53.164;5.802;2022-09-09T09:12:00;100800.63;;;17.08;82.19
52535;BME280;38443;53.164;5.802;2022-09-09T09:14:31;100811.53;;;16.90;80.64
52535;BME280;38443;53.164;5.802;2022-09-09T09:17:17;100819.06;;;16.68;78.05
52535;BME280;38443;53.164;5.802;2022-09-09T09:19:44;100825.25;;;16.70;82.79
52535;BME280;38443;53.164;5.802;2022-09-09T09:22:21;100816.59;;;16.63;79.98
52535;BME280;38443;53.164;5.802;2022-09-09T09:27:30;100813.97;;;16.62;80.82
52535;BME280;38443;53.164;5.802;2022-09-09T09:29:58;100818.50;;;16.61;81.96
52535;BME280;38443;53.164;5.802;2022-09-09T09:32:26;100819.97;;;16.51;79.84
52535;BME280;38443;53.164;5.802;2022-09-09T09:34:56;100831.19;;;16.43;81.33
52535;BME280;38443;53.164;5.802;2022-09-09T09:37:42;100833.09;;;16.41;78.23
52535;BME280;38443;53.164;5.802;2022-09-09T09:40:17;100824.59;;;16.49;80.39
52535;BME280;38443;53.164;5.802;2022-09-09T09:43:00;100830.38;;;16.59;80.44
52535;BME280;38443;53.164;5.802;2022-09-09T09:45:43;100828.56;;;16.75;82.38
52535;BME280;38443;53.164;5.802;2022-09-09T09:48:12;100827.03;;;16.87;82.59
52535;BME280;38443;53.164;5.802;2022-09-09T09:50:49;100826.44;;;16.98;79.23
52535;BME280;38443;53.164;5.802;2022-09-09T09:53:26;100823.56;;;17.17;79.33
52535;BME280;38443;53.164;5.802;2022-09-09T09:55:59;100817.88;;;17.37;76.85
52535;BME280;38443;53.164;5.802;2022-09-09T09:58:27;100821.25;;;17.57;81.76
52535;BME280;38443;53.164;5.802;2022-09-09T10:00:59;100809.56;;;17.56;81.54
52535;BME280;38443;53.164;5.802;2022-09-09T10:03:32;100818.47;;;17.58;80.08
52535;BME280;38443;53.164;5.802;2022-09-09T10:06:03;100823.88;;;17.58;80.80
52535;BME280;38443;53.164;5.802;2022-09-09T10:08:28;100823.19;;;17.54;79.48
52535;BME280;38443;53.164;5.802;2022-09-09T10:13:54;100818.69;;;17.69;74.87
52535;BME280;38443;53.164;5.802;2022-09-09T10:19:04;100808.13;;;17.65;73.94
52535;BME280;38443;53.164;5.802;2022-09-09T10:27:18;100816.88;;;18.00;71.51
52535;BME280;38443;53.164;5.802;2022-09-09T10:32:35;100811.59;;;18.56;71.89
52535;BME280;38443;53.164;5.802;2022-09-09T10:38:09;100813.63;;;18.96;70.19
52535;BME280;38443;53.164;5.802;2022-09-09T10:43:33;100808.94;;;19.12;69.08
52535;BME280;38443;53.164;5.802;2022-09-09T10:49:11;100804.03;;;18.90;68.20
52535;BME280;38443;53.164;5.802;2022-09-09T10:51:50;100804.03;;;19.04;73.31
52535;BME280;38443;53.164;5.802;2022-09-09T10:57:33;100805.81;;;18.62;66.75
52535;BME280;38443;53.164;5.802;2022-09-09T11:00:06;100805.59;;;18.94;70.82
52535;BME280;38443;53.164;5.802;2022-09-09T11:02:34;100800.94;;;18.96;70.34
52535;BME280;38443;53.164;5.802;2022-09-09T11:08:21;100813.13;;;19.03;68.26
52535;BME280;38443;53.164;5.802;2022-09-09T11:10:58;100813.03;;;19.05;69.76
52535;BME280;38443;53.164;5.802;2022-09-09T11:16:52;100822.75;;;18.80;69.30
52535;BME280;38443;53.164;5.802;2022-09-09T11:19:30;100813.47;;;18.84;68.60
52535;BME280;38443;53.164;5.802;2022-09-09T11:24:49;100811.19;;;19.05;70.96
52535;BME280;38443;53.164;5.802;2022-09-09T11:27:35;100813.63;;;18.96;69.94
52535;BME280;38443;53.164;5.802;2022-09-09T11:30:21;100806.09;;;18.86;69.55
52535;BME280;38443;53.164;5.802;2022-09-09T11:41:04;100809.91;;;19.11;65.64
52535;BME280;38443;53.164;5.802;2022-09-09T11:46:06;100801.38;;;19.17;69.10
52535;BME280;38443;53.164;5.802;2022-09-09T11:48:40;100800.66;;;19.28;64.92
52535;BME280;38443;53.164;5.802;2022-09-09T11:51:26;100807.63;;;19.32;65.66
52535;BME280;38443;53.164;5.802;2022-09-09T11:54:02;100812.75;;;19.37;69.08
52535;BME280;38443;53.164;5.802;2022-09-09T11:56:44;100805.31;;;19.26;67.82
52535;BME280;38443;53.164;5.802;2022-09-09T11:59:32;100802.19;;;19.32;65.54
52535;BME280;38443;53.164;5.802;2022-09-09T12:02:24;100793.59;;;19.25;65.95
52535;BME280;38443;53.164;5.802;2022-09-09T12:04:59;100796.91;;;19.16;66.16
52535;BME280;38443;53.164;5.802;2022-09-09T12:10:26;100804.16;;;18.88;66.58
52535;BME280;38443;53.164;5.802;2022-09-09T12:12:52;100808.31;;;18.80;70.41
52535;BME280;38443;53.164;5.802;2022-09-09T12:17:53;100813.13;;;18.31;68.05
52535;BME280;38443;53.164;5.802;2022-09-09T12:20:23;100814.00;;;18.32;69.53
52535;BME280;38443;53.164;5.802;2022-09-09T12:28:18;100808.13;;;18.83;68.60
52535;BME280;38443;53.164;5.802;2022-09-09T12:33:35;100810.34;;;18.90;69.09
52535;BME280;38443;53.164;5.802;2022-09-09T12:36:03;100806.25;;;18.98;68.53
52535;BME280;38443;53.164;5.802;2022-09-09T12:38:37;100805.41;;;18.97;68.08
52535;BME280;38443;53.164;5.802;2022-09-09T12:41:04;100795.22;;;19.01;69.16
52535;BME280;38443;53.164;5.802;2022-09-09T12:43:29;100803.16;;;19.04;68.95
52535;BME280;38443;53.164;5.802;2022-09-09T12:46:08;100802.59;;;18.99;67.96
52535;BME280;38443;53.164;5.802;2022-09-09T12:48:39;100798.31;;;19.09;67.41
52535;BME280;38443;53.164;5.802;2022-09-09T12:51:49;100788.13;;;18.98;66.04
52535;BME280;38443;53.164;5.802;2022-09-09T12:54:13;100784.59;;;18.83;67.05
52535;BME280;38443;53.164;5.802;2022-09-09T12:56:39;100778.19;;;18.99;68.45
52535;BME280;38443;53.164;5.802;2022-09-09T12:59:04;100777.09;;;19.01;68.07
52535;BME280;38443;53.164;5.802;2022-09-09T13:01:31;100781.44;;;19.04;68.08
52535;BME280;38443;53.164;5.802;2022-09-09T13:03:58;100771.84;;;19.12;67.65
52535;BME280;38443;53.164;5.802;2022-09-09T13:06:29;100773.81;;;19.23;66.93
52535;BME280;38443;53.164;5.802;2022-09-09T13:08:57;100774.59;;;19.25;67.85
52535;BME280;38443;53.164;5.802;2022-09-09T13:12:07;100770.53;;;19.18;66.46
52535;BME280;38443;53.164;5.802;2022-09-09T13:14:31;100765.88;;;18.93;68.05
52535;BME280;38443;53.164;5.802;2022-09-09T13:17:03;100773.25;;;18.77;67.98
52535;BME280;38443;53.164;5.802;2022-09-09T13:19:33;100772.56;;;18.87;68.69
52535;BME280;38443;53.164;5.802;2022-09-09T13:22:11;100777.31;;;19.25;67.54
52535;BME280;38443;53.164;5.802;2022-09-09T13:24:38;100756.94;;;19.32;66.33
52535;BME280;38443;53.164;5.802;2022-09-09T13:27:29;100768.22;;;19.12;64.49
52535;BME280;38443;53.164;5.802;2022-09-09T13:29:55;100767.19;;;19.15;67.48
52535;BME280;38443;53.164;5.802;2022-09-09T13:32:23;100771.16;;;19.09;67.18
52535;BME280;38443;53.164;5.802;2022-09-09T13:35:00;100760.56;;;18.91;65.59
52535;BME280;38443;53.164;5.802;2022-09-09T13:37:36;100765.31;;;18.59;67.25
52535;BME280;38443;53.164;5.802;2022-09-09T13:40:04;100779.25;;;18.10;70.40
52535;BME280;38443;53.164;5.802;2022-09-09T13:42:32;100773.50;;;17.86;72.51
52535;BME280;38443;53.164;5.802;2022-09-09T13:45:03;100779.41;;;17.62;74.12
52535;BME280;38443;53.164;5.802;2022-09-09T13:47:36;100776.91;;;17.43;76.14
52535;BME280;38443;53.164;5.802;2022-09-09T13:50:22;100784.59;;;17.51;77.16
52535;BME280;38443;53.164;5.802;2022-09-09T13:52:49;100767.94;;;17.73;76.61
52535;BME280;38443;53.164;5.802;2022-09-09T13:55:16;100767.75;;;17.76;76.15
52535;BME280;38443;53.164;5.802;2022-09-09T13:57:54;100770.78;;;17.86;76.26
52535;BME280;38443;53.164;5.802;2022-09-09T14:00:21;100771.41;;;18.05;75.87
52535;BME280;38443;53.164;5.802;2022-09-09T14:02:48;100758.84;;;18.19;75.62
52535;BME280;38443;53.164;5.802;2022-09-09T14:05:14;100762.53;;;18.46;75.67
52535;BME280;38443;53.164;5.802;2022-09-09T14:07:41;100752.63;;;18.60;74.42
52535;BME280;38443;53.164;5.802;2022-09-09T14:10:07;100761.44;;;18.63;73.85
52535;BME280;38443;53.164;5.802;2022-09-09T14:12:33;100760.38;;;18.66;72.50
52535;BME280;38443;53.164;5.802;2022-09-09T14:14:58;100753.78;;;18.70;72.80
52535;BME280;38443;53.164;5.802;2022-09-09T14:17:25;100758.47;;;18.82;72.78
52535;BME280;38443;53.164;5.802;2022-09-09T14:19:52;100754.94;;;18.80;72.13
52535;BME280;38443;53.164;5.802;2022-09-09T14:22:18;100755.25;;;18.61;72.12
52535;BME280;38443;53.164;5.802;2022-09-09T14:24:43;100753.72;;;18.43;72.00
52535;BME280;38443;53.164;5.802;2022-09-09T14:27:08;100757.00;;;18.33;71.98
52535;BME280;38443;53.164;5.802;2022-09-09T14:29:34;100757.31;;;18.29;72.16
52535;BME280;38443;53.164;5.802;2022-09-09T14:31:59;100753.72;;;18.28;71.75
52535;BME280;38443;53.164;5.802;2022-09-09T14:34:26;100755.53;;;18.28;71.38
52535;BME280;38443;53.164;5.802;2022-09-09T14:36:51;100751.97;;;18.27;71.66
52535;BME280;38443;53.164;5.802;2022-09-09T14:39:17;100757.69;;;18.23;71.40
52535;BME280;38443;53.164;5.802;2022-09-09T14:41:42;100755.94;;;18.22;71.33
52535;BME280;38443;53.164;5.802;2022-09-09T14:44:08;100755.38;;;18.02;71.63
52535;BME280;38443;53.164;5.802;2022-09-09T14:46:33;100755.16;;;17.91;71.77
52535;BME280;38443;53.164;5.802;2022-09-09T14:48:59;100760.72;;;17.88;71.70
52535;BME280;38443;53.164;5.802;2022-09-09T14:51:25;100757.25;;;17.86;71.86
52535;BME280;38443;53.164;5.802;2022-09-09T14:53:58;100775.69;;;17.79;71.77
52535;BME280;38443;53.164;5.802;2022-09-09T14:56:29;100767.25;;;17.69;72.72
52535;BME280;38443;53.164;5.802;2022-09-09T14:58:56;100772.69;;;17.53;73.77
52535;BME280;38443;53.164;5.802;2022-09-09T15:01:23;100779.72;;;17.42;74.33
52535;BME280;38443;53.164;5.802;2022-09-09T15:03:52;100777.03;;;17.26;76.04